Auburn, New York
Current Conditions -  °F | °C
As of 7:54 AM on Monday 22 Dec 2014 (Local Time) from KSYR Reporting Station
Overcast Overcast  
Wind Chill: -6°   Ceiling: 2500
Heat Index: -2°   Visibility: 10mi
Dew Point: -4°   Wind: 7mph
Humidity: 85%   Direction: 90°E
Pressure: 30.29"   Gusts: NA
Location:  42.93°N, 76.56°W
Report Text: KSYR 221254Z 09006KT 10SM OVC025 M02/M04 A3029 RMK AO2 SLP260 T10171039 $
Loading
Personal Weather Stations






























Interactive Weather Map New forecast layout! Learn more

10-Day Weather Forecast

Advertisements
Track Severe Weather on mobile